Time;durP1;ratioP1;P1;durP2;ratioP2;P2;SDS_P1;SDS_P2;PMS_P1;PMS_P2;Temp;Humidity;BMP_temperature;BMP_pressure;BME280_temperature;BME280_humidity;BME280_pressure;Samples;Min_cycle;Max_cycle;Signal;HPM_P1;HPM_P2
2021/04/25 00:00:59;;;;;;;13.27;6.65;;;5.40;99.90;;;;;;5073759;28;20043;-73
2021/04/25 00:03:25;;;;;;;18.90;6.70;;;5.40;99.90;;;;;;5072879;28;20029;-72
2021/04/25 00:05:50;;;;;;;16.08;7.70;;;5.40;99.90;;;;;;5074067;28;20138;-72
2021/04/25 00:08:16;;;;;;;9.98;6.15;;;5.40;99.90;;;;;;5074015;28;20102;-71
2021/04/25 00:10:42;;;;;;;10.90;6.13;;;5.50;99.90;;;;;;5072902;28;20066;-72
2021/04/25 00:13:09;;;;;;;20.42;6.95;;;5.50;99.90;;;;;;5073812;28;20044;-72
2021/04/25 00:15:35;;;;;;;10.93;7.55;;;5.60;99.90;;;;;;5073565;28;20032;-72
2021/04/25 00:18:01;;;;;;;12.05;6.65;;;5.60;99.90;;;;;;5072847;28;20059;-72
2021/04/25 00:20:26;;;;;;;11.45;7.63;;;5.70;99.90;;;;;;5075228;28;20048;-73
2021/04/25 00:22:52;;;;;;;12.73;6.55;;;5.70;99.90;;;;;;5076161;28;20057;-72
2021/04/25 00:25:18;;;;;;;17.63;8.48;;;5.80;99.90;;;;;;5072637;28;20028;-72
2021/04/25 00:27:44;;;;;;;12.20;7.20;;;5.90;99.90;;;;;;5073748;28;20028;-72
2021/04/25 00:30:14;;;;;;;12.45;7.45;;;6.00;99.90;;;;;;5074556;28;20050;-72
2021/04/25 00:32:40;;;;;;;10.95;7.28;;;6.00;99.90;;;;;;5074606;28;20435;-73
2021/04/25 00:35:06;;;;;;;14.20;6.80;;;6.10;99.90;;;;;;5076741;28;20107;-72
2021/04/25 00:37:32;;;;;;;11.95;5.80;;;6.10;99.90;;;;;;5076257;28;20012;-72
2021/04/25 00:39:57;;;;;;;14.63;7.10;;;6.20;99.90;;;;;;5072945;28;20077;-72
2021/04/25 00:42:23;;;;;;;10.35;7.13;;;6.20;99.90;;;;;;5072817;28;20504;-72
2021/04/25 00:44:48;;;;;;;17.27;8.43;;;6.20;99.90;;;;;;5073126;28;20027;-72
2021/04/25 00:47:14;;;;;;;13.55;6.97;;;6.30;99.90;;;;;;5072735;28;20105;-73
2021/04/25 00:49:40;;;;;;;9.63;6.60;;;6.30;99.90;;;;;;5072809;28;20016;-72
2021/04/25 00:52:08;;;;;;;12.68;7.25;;;6.30;99.90;;;;;;5073013;28;20028;-72
2021/04/25 00:54:39;;;;;;;9.10;6.28;;;6.30;99.90;;;;;;5071980;28;20082;-72
2021/04/25 00:57:05;;;;;;;17.10;8.13;;;6.30;99.90;;;;;;5073100;28;20028;-71
2021/04/25 00:59:31;;;;;;;18.38;7.78;;;6.30;99.90;;;;;;5071459;28;20062;-72
2021/04/25 01:01:57;;;;;;;12.80;7.03;;;6.20;99.90;;;;;;5072806;28;20365;-73
2021/04/25 01:04:22;;;;;;;16.13;7.55;;;6.10;99.90;;;;;;5072537;28;20017;-73
2021/04/25 01:06:48;;;;;;;14.85;7.63;;;6.00;99.90;;;;;;5072314;28;20055;-72
2021/04/25 01:09:14;;;;;;;13.95;7.30;;;6.00;99.90;;;;;;5072966;28;20033;-73
2021/04/25 01:11:41;;;;;;;14.38;7.80;;;5.90;99.90;;;;;;5072537;28;20021;-72
2021/04/25 01:14:09;;;;;;;15.65;7.60;;;5.90;99.90;;;;;;5071882;28;20029;-72
2021/04/25 01:16:34;;;;;;;15.60;7.28;;;5.90;99.90;;;;;;5072124;28;20017;-72
2021/04/25 01:19:00;;;;;;;12.57;7.72;;;5.90;99.90;;;;;;5072628;28;20101;-72
2021/04/25 01:21:26;;;;;;;13.82;7.97;;;5.90;99.90;;;;;;5071521;28;20060;-73
2021/04/25 01:23:51;;;;;;;12.50;7.43;;;5.90;99.90;;;;;;5072473;28;20021;-72
2021/04/25 01:26:17;;;;;;;12.73;6.90;;;6.00;99.90;;;;;;5072309;28;20047;-71
2021/04/25 01:28:43;;;;;;;10.82;6.53;;;6.40;99.90;;;;;;5071574;28;20036;-72
2021/04/25 01:31:08;;;;;;;14.25;8.10;;;6.10;99.90;;;;;;5072074;28;20059;-71
2021/04/25 01:33:34;;;;;;;18.95;8.25;;;6.10;99.90;;;;;;5072122;28;20476;-71
2021/04/25 01:36:02;;;;;;;16.67;8.15;;;6.10;99.90;;;;;;5071733;28;20020;-71
2021/04/25 01:38:27;;;;;;;12.13;7.10;;;6.20;99.90;;;;;;5072103;28;20031;-72
2021/04/25 01:40:59;;;;;;;15.02;7.18;;;6.20;99.90;;;;;;5072343;28;20020;-72
2021/04/25 01:43:25;;;;;;;12.32;8.13;;;6.20;99.90;;;;;;5071189;28;20029;-72
2021/04/25 01:45:51;;;;;;;10.75;7.43;;;6.20;99.90;;;;;;5072214;28;20114;-72
2021/04/25 01:48:16;;;;;;;13.63;7.65;;;6.20;99.90;;;;;;5072409;28;20472;-72
2021/04/25 01:50:42;;;;;;;17.35;7.70;;;6.20;99.90;;;;;;5071289;28;20057;-72
2021/04/25 01:53:10;;;;;;;19.00;8.00;;;6.20;99.90;;;;;;5072252;28;20032;-72
2021/04/25 01:55:36;;;;;;;12.93;7.78;;;6.20;99.90;;;;;;5071068;28;20495;-73
2021/04/25 01:58:03;;;;;;;10.73;7.15;;;6.20;99.90;;;;;;5071822;28;20032;-72
2021/04/25 02:00:35;;;;;;;10.27;7.60;;;6.20;99.90;;;;;;5071304;28;20028;-72
2021/04/25 02:03:02;;;;;;;18.08;9.05;;;6.20;99.90;;;;;;5069486;28;20035;-72
2021/04/25 02:05:28;;;;;;;15.02;6.47;;;6.30;99.90;;;;;;5071638;28;20063;-73
2021/04/25 02:07:54;;;;;;;15.10;7.15;;;6.30;99.90;;;;;;5071976;28;20060;-73
2021/04/25 02:10:23;;;;;;;13.30;8.18;;;6.30;99.90;;;;;;5071229;28;20047;-73
2021/04/25 02:12:50;;;;;;;13.60;7.80;;;6.30;99.90;;;;;;5075762;28;20111;-72
2021/04/25 02:15:16;;;;;;;21.05;7.22;;;6.40;99.90;;;;;;5076706;28;20481;-72
2021/04/25 02:17:43;;;;;;;11.45;6.93;;;6.40;99.90;;;;;;5075161;28;20056;-72
2021/04/25 02:20:12;;;;;;;10.82;6.63;;;6.40;99.90;;;;;;5076191;28;20020;-72
2021/04/25 02:22:38;;;;;;;11.55;7.82;;;6.40;99.90;;;;;;5077128;28;20523;-73
2021/04/25 02:25:05;;;;;;;14.40;6.72;;;6.40;99.90;;;;;;5076378;28;20052;-72
2021/04/25 02:27:31;;;;;;;10.18;6.68;;;6.50;99.90;;;;;;5075979;28;20040;-72
2021/04/25 02:29:57;;;;;;;11.27;7.43;;;6.50;99.90;;;;;;5075870;28;20048;-71
2021/04/25 02:32:22;;;;;;;18.88;7.57;;;6.50;99.90;;;;;;5075639;28;20044;-72
2021/04/25 02:34:48;;;;;;;10.77;6.53;;;6.50;99.90;;;;;;5076170;28;20377;-72
2021/04/25 02:37:14;;;;;;;12.85;6.97;;;6.50;99.90;;;;;;5077020;28;20055;-71
2021/04/25 02:39:40;;;;;;;13.20;7.00;;;6.50;99.90;;;;;;5075563;28;20397;-73
2021/04/25 02:42:06;;;;;;;11.63;6.55;;;6.40;99.90;;;;;;5075392;28;20029;-72
2021/04/25 02:44:31;;;;;;;10.80;6.65;;;6.40;99.90;;;;;;5073906;28;20033;-73
2021/04/25 02:46:57;;;;;;;11.27;7.18;;;6.40;99.90;;;;;;5074636;28;20025;-72
2021/04/25 02:49:22;;;;;;;16.63;7.25;;;6.40;99.90;;;;;;5075145;28;20554;-73
2021/04/25 02:51:48;;;;;;;12.20;6.93;;;6.40;99.90;;;;;;5074489;28;20031;-73
2021/04/25 02:54:14;;;;;;;13.55;6.45;;;6.40;99.90;;;;;;5075471;28;20036;-72
2021/04/25 02:56:42;;;;;;;10.13;6.25;;;6.30;99.90;;;;;;5075204;28;20389;-72
2021/04/25 02:59:08;;;;;;;9.27;6.90;;;6.30;99.90;;;;;;5074683;28;20097;-72
2021/04/25 03:01:33;;;;;;;12.48;6.93;;;6.30;99.90;;;;;;5074978;28;20434;-72
2021/04/25 03:03:59;;;;;;;12.40;6.05;;;6.30;99.90;;;;;;5075847;28;20024;-72
2021/04/25 03:06:24;;;;;;;11.07;6.60;;;6.30;99.90;;;;;;5074257;28;20028;-73
2021/04/25 03:08:50;;;;;;;10.32;6.05;;;6.30;99.90;;;;;;5074827;28;20027;-73
2021/04/25 03:11:15;;;;;;;12.63;6.75;;;6.30;99.90;;;;;;5075025;28;20040;-72
2021/04/25 03:13:41;;;;;;;20.55;6.55;;;6.30;99.90;;;;;;5074025;28;20361;-72
2021/04/25 03:16:07;;;;;;;10.68;6.07;;;6.30;99.90;;;;;;5075433;28;20045;-72
2021/04/25 03:18:32;;;;;;;12.00;6.05;;;6.30;99.90;;;;;;5075300;28;20024;-72
2021/04/25 03:20:58;;;;;;;13.02;5.88;;;6.30;99.90;;;;;;5074249;28;20016;-74
2021/04/25 03:23:23;;;;;;;11.98;6.85;;;6.30;99.90;;;;;;5074422;28;20032;-72
2021/04/25 03:25:49;;;;;;;13.68;6.13;;;6.40;99.90;;;;;;5074904;28;20051;-72
2021/04/25 03:28:15;;;;;;;9.63;6.47;;;6.30;99.90;;;;;;5074144;28;20468;-73
2021/04/25 03:30:40;;;;;;;11.55;6.35;;;6.30;99.90;;;;;;5073963;28;20020;-72
2021/04/25 03:33:06;;;;;;;9.25;5.80;;;6.40;99.90;;;;;;5074610;28;20035;-72
2021/04/25 03:35:32;;;;;;;12.93;6.50;;;6.40;99.90;;;;;;5073554;28;20479;-72
2021/04/25 03:38:00;;;;;;;12.35;6.78;;;6.30;99.90;;;;;;5074161;28;20487;-71
2021/04/25 03:40:26;;;;;;;11.35;6.38;;;6.40;99.90;;;;;;5074001;28;20035;-72
2021/04/25 03:42:51;;;;;;;10.00;6.53;;;6.40;99.90;;;;;;5073447;28;20036;-71
2021/04/25 03:45:18;;;;;;;9.20;6.82;;;6.40;99.90;;;;;;5074310;28;20028;-73
2021/04/25 03:47:45;;;;;;;11.68;6.80;;;6.40;99.90;;;;;;5074197;28;20086;-73
2021/04/25 03:50:12;;;;;;;9.45;5.78;;;6.40;99.90;;;;;;5073581;28;20107;-73
2021/04/25 03:52:38;;;;;;;14.05;6.35;;;6.40;99.90;;;;;;5073817;28;20115;-73
2021/04/25 03:55:05;;;;;;;8.63;5.80;;;6.50;99.90;;;;;;5073649;28;20434;-73
2021/04/25 03:57:30;;;;;;;8.40;5.75;;;6.50;99.90;;;;;;5073829;28;20039;-73
2021/04/25 03:59:56;;;;;;;9.98;5.80;;;6.50;99.90;;;;;;5074326;28;20017;-73
2021/04/25 04:02:21;;;;;;;13.57;6.85;;;6.50;99.90;;;;;;5072879;28;20120;-73
2021/04/25 04:04:47;;;;;;;12.20;6.18;;;6.60;99.90;;;;;;5073991;28;20021;-73
2021/04/25 04:07:12;;;;;;;10.48;5.32;;;6.60;99.90;;;;;;5073934;28;20028;-71
2021/04/25 04:09:39;;;;;;;9.40;5.38;;;6.60;99.90;;;;;;5073748;28;20073;-73
2021/04/25 04:12:07;;;;;;;14.98;5.25;;;6.60;99.90;;;;;;5074327;28;20024;-73
2021/04/25 04:14:32;;;;;;;9.90;5.93;;;6.60;99.90;;;;;;5073881;28;20353;-72
2021/04/25 04:16:58;;;;;;;8.93;5.55;;;6.60;99.90;;;;;;5073323;28;20150;-73
2021/04/25 04:19:23;;;;;;;11.40;6.38;;;6.60;99.90;;;;;;5073441;28;20024;-73
2021/04/25 04:21:49;;;;;;;9.93;5.55;;;6.60;99.90;;;;;;5073989;28;20028;-73
2021/04/25 04:24:14;;;;;;;10.50;6.35;;;6.50;99.90;;;;;;5075396;28;20035;-72
2021/04/25 04:26:40;;;;;;;11.25;5.65;;;6.50;99.90;;;;;;5074033;28;20533;-72
2021/04/25 04:29:06;;;;;;;9.60;6.20;;;6.60;99.90;;;;;;5073447;28;20031;-73
2021/04/25 04:31:31;;;;;;;12.93;7.07;;;6.50;99.90;;;;;;5072482;28;20412;-73
2021/04/25 04:33:57;;;;;;;9.68;5.85;;;6.50;99.90;;;;;;5075436;28;20058;-73
2021/04/25 04:36:22;;;;;;;10.55;5.45;;;6.50;99.90;;;;;;5075164;28;20025;-73
2021/04/25 04:38:48;;;;;;;13.13;6.15;;;6.50;99.90;;;;;;5073141;28;20021;-73
2021/04/25 04:41:13;;;;;;;8.93;5.97;;;6.50;99.90;;;;;;5073631;28;20471;-72
2021/04/25 04:43:39;;;;;;;12.23;6.10;;;6.40;99.90;;;;;;5073033;28;20029;-73
2021/04/25 04:46:04;;;;;;;7.85;4.38;;;6.40;99.90;;;;;;5072278;28;20025;-72
2021/04/25 04:48:30;;;;;;;8.45;4.47;;;6.50;99.90;;;;;;5072970;28;20031;-72
2021/04/25 04:50:55;;;;;;;6.47;2.90;;;6.50;99.90;;;;;;5073297;28;20052;-73
2021/04/25 04:53:21;;;;;;;5.85;2.83;;;6.40;99.90;;;;;;5072385;28;20024;-72
2021/04/25 04:55:53;;;;;;;6.75;3.00;;;6.50;99.90;;;;;;5073406;28;20025;-72
2021/04/25 04:58:18;;;;;;;7.40;3.35;;;6.50;99.90;;;;;;5072838;28;20016;-74
2021/04/25 05:00:44;;;;;;;9.10;2.80;;;6.60;99.90;;;;;;5072442;28;20041;-73
2021/04/25 05:03:10;;;;;;;3.20;2.25;;;6.60;99.90;;;;;;5072940;28;20036;-73
2021/04/25 05:05:35;;;;;;;7.45;2.35;;;6.60;99.90;;;;;;5072202;28;20483;-73
2021/04/25 05:08:01;;;;;;;6.35;2.03;;;6.60;99.90;;;;;;5072642;28;20446;-71
2021/04/25 05:10:26;;;;;;;3.45;2.50;;;6.60;99.90;;;;;;5072285;28;20054;-72
2021/04/25 05:12:52;;;;;;;5.10;2.15;;;6.60;99.90;;;;;;5072021;28;20020;-72
2021/04/25 05:15:18;;;;;;;4.82;1.88;;;6.60;99.90;;;;;;5072389;28;20085;-72
2021/04/25 05:17:43;;;;;;;6.63;1.92;;;6.60;99.90;;;;;;5072532;28;20526;-73
2021/04/25 05:20:10;;;;;;;8.27;2.53;;;6.60;99.90;;;;;;5071725;28;20468;-72
2021/04/25 05:22:35;;;;;;;5.90;2.42;;;6.70;99.90;;;;;;5071884;28;20075;-73
2021/04/25 05:25:01;;;;;;;6.78;2.05;;;6.70;99.90;;;;;;5072680;28;20425;-72
2021/04/25 05:27:26;;;;;;;5.80;2.30;;;6.70;99.90;;;;;;5071496;28;20029;-73
2021/04/25 05:29:52;;;;;;;6.93;2.03;;;6.70;99.90;;;;;;5072480;28;20013;-72
2021/04/25 05:32:17;;;;;;;5.40;1.75;;;6.70;99.90;;;;;;5072018;28;20499;-72
2021/04/25 05:34:43;;;;;;;6.18;2.47;;;6.70;99.90;;;;;;5071497;28;20025;-72
2021/04/25 05:37:09;;;;;;;5.97;2.45;;;6.70;99.90;;;;;;5072212;28;20037;-73
2021/04/25 05:39:34;;;;;;;5.90;2.53;;;6.80;99.90;;;;;;5072015;28;20021;-73
2021/04/25 05:42:00;;;;;;;6.75;2.67;;;6.80;99.90;;;;;;5071450;28;20029;-72
2021/04/25 05:44:27;;;;;;;5.28;2.10;;;6.80;99.90;;;;;;5071721;28;20025;-72
2021/04/25 05:46:56;;;;;;;10.48;2.85;;;6.80;99.90;;;;;;5071268;28;20028;-72
2021/04/25 05:49:22;;;;;;;3.83;2.60;;;6.80;99.90;;;;;;5070840;28;20033;-72
2021/04/25 05:51:48;;;;;;;6.53;2.28;;;6.90;99.90;;;;;;5072290;28;20023;-72
2021/04/25 05:54:13;;;;;;;7.70;2.03;;;7.00;99.90;;;;;;5072313;28;20033;-72
2021/04/25 05:56:39;;;;;;;5.18;2.65;;;7.00;99.90;;;;;;5071225;28;20096;-72
2021/04/25 05:59:05;;;;;;;7.20;2.05;;;7.00;99.90;;;;;;5072238;28;20090;-73
2021/04/25 06:01:30;;;;;;;6.38;2.92;;;7.00;99.90;;;;;;5071548;28;20063;-73
2021/04/25 06:03:56;;;;;;;10.68;2.78;;;7.00;99.90;;;;;;5071298;28;20112;-73
2021/04/25 06:06:22;;;;;;;5.18;2.50;;;7.10;99.90;;;;;;5071464;28;20105;-73
2021/04/25 06:08:47;;;;;;;6.88;2.25;;;7.10;99.90;;;;;;5070956;28;20518;-72
2021/04/25 06:11:13;;;;;;;6.63;2.10;;;7.10;99.90;;;;;;5072143;28;20384;-73
2021/04/25 06:13:38;;;;;;;5.40;2.40;;;7.10;99.90;;;;;;5071657;28;20059;-74
2021/04/25 06:16:04;;;;;;;7.35;1.92;;;7.20;99.90;;;;;;5071524;28;20069;-72
2021/04/25 06:18:30;;;;;;;7.10;2.13;;;7.20;99.90;;;;;;5071810;28;20131;-73
2021/04/25 06:20:56;;;;;;;8.70;2.40;;;7.10;99.90;;;;;;5072297;28;20031;-72
2021/04/25 06:23:21;;;;;;;4.80;2.10;;;7.20;99.90;;;;;;5071418;28;20036;-72
2021/04/25 06:25:47;;;;;;;16.77;2.47;;;7.20;99.90;;;;;;5073696;28;20047;-73
2021/04/25 06:28:13;;;;;;;11.43;2.53;;;7.20;99.90;;;;;;5073306;28;20048;-73
2021/04/25 06:30:38;;;;;;;8.15;2.30;;;7.30;99.90;;;;;;5070774;28;20043;-73
2021/04/25 06:33:07;;;;;;;5.63;2.30;;;7.30;99.90;;;;;;5071700;28;20028;-73
2021/04/25 06:35:33;;;;;;;4.38;2.25;;;7.30;99.90;;;;;;5072058;28;20044;-73
2021/04/25 06:37:59;;;;;;;6.18;2.85;;;7.40;99.90;;;;;;5072058;28;20020;-72
2021/04/25 06:40:24;;;;;;;7.20;2.65;;;7.40;99.90;;;;;;5073230;28;20046;-73
2021/04/25 06:42:50;;;;;;;9.43;2.33;;;7.40;99.90;;;;;;5073684;28;20040;-72
2021/04/25 06:45:18;;;;;;;8.68;2.40;;;7.50;99.90;;;;;;5071108;28;20029;-73
2021/04/25 06:47:44;;;;;;;7.30;1.98;;;7.50;99.90;;;;;;5071463;28;20033;-72
2021/04/25 06:50:12;;;;;;;3.70;2.17;;;7.60;99.90;;;;;;5071879;28;20020;-72
2021/04/25 06:52:46;;;;;;;10.48;2.33;;;7.60;99.90;;;;;;5071548;28;20029;-72
2021/04/25 06:55:16;;;;;;;6.85;2.15;;;7.60;99.90;;;;;;5070307;28;20442;-73
2021/04/25 06:57:46;;;;;;;7.32;1.95;;;7.60;99.90;;;;;;5073297;28;20399;-74
2021/04/25 07:00:15;;;;;;;8.52;1.95;;;7.70;99.90;;;;;;5074484;28;20101;-72
2021/04/25 07:02:41;;;;;;;4.30;1.75;;;7.70;99.90;;;;;;5074895;28;20042;-72
2021/04/25 07:05:08;;;;;;;8.30;1.90;;;7.70;99.90;;;;;;5074518;28;20103;-74
2021/04/25 07:07:33;;;;;;;9.07;1.60;;;7.70;99.90;;;;;;5075094;28;20020;-72
2021/04/25 07:10:00;;;;;;;10.65;2.05;;;7.80;99.90;;;;;;5075379;28;20020;-72
2021/04/25 07:12:26;;;;;;;7.03;1.88;;;7.90;99.90;;;;;;5073947;28;20365;-72
2021/04/25 07:14:53;;;;;;;8.18;2.50;;;7.90;99.90;;;;;;5075117;28;20505;-73
2021/04/25 07:17:19;;;;;;;7.40;1.98;;;8.00;99.90;;;;;;5074810;28;20085;-73
2021/04/25 07:19:44;;;;;;;8.02;1.92;;;8.00;99.90;;;;;;5074398;28;20052;-72
2021/04/25 07:22:11;;;;;;;11.65;1.80;;;8.00;99.90;;;;;;5074819;28;20059;-72
2021/04/25 07:24:36;;;;;;;4.13;2.05;;;8.10;99.90;;;;;;5074763;28;20439;-73
2021/04/25 07:27:03;;;;;;;7.55;1.95;;;8.10;99.90;;;;;;5074315;28;20047;-73
2021/04/25 07:29:30;;;;;;;12.00;2.15;;;8.20;99.90;;;;;;5076184;28;20025;-72
2021/04/25 07:31:57;;;;;;;4.20;1.40;;;8.40;99.90;;;;;;5076949;28;20052;-72
2021/04/25 07:34:23;;;;;;;9.77;2.55;;;8.30;99.90;;;;;;5077896;28;20987;-72
2021/04/25 07:36:48;;;;;;;7.18;1.90;;;8.30;99.90;;;;;;5075488;28;20028;-73
2021/04/25 07:39:14;;;;;;;12.65;1.95;;;8.40;99.90;;;;;;5074631;28;20557;-73
2021/04/25 07:41:39;;;;;;;5.88;1.67;;;8.50;99.90;;;;;;5073562;28;20415;-73
2021/04/25 07:44:05;;;;;;;8.60;1.35;;;8.50;99.90;;;;;;5074446;28;20028;-73
2021/04/25 07:46:31;;;;;;;7.13;1.10;;;8.60;99.90;;;;;;5074245;28;20017;-73
2021/04/25 07:48:56;;;;;;;9.02;1.73;;;8.50;99.90;;;;;;5073778;28;20024;-73
2021/04/25 07:51:22;;;;;;;8.55;2.65;;;8.40;99.90;;;;;;5074074;28;20528;-72
2021/04/25 07:53:51;;;;;;;5.15;2.40;;;8.50;99.90;;;;;;5074562;28;20024;-72
2021/04/25 07:56:17;;;;;;;3.38;1.98;;;8.50;99.90;;;;;;5073370;28;20042;-71
2021/04/25 07:58:43;;;;;;;3.97;1.75;;;8.60;99.90;;;;;;5074136;28;20021;-73
2021/04/25 08:01:08;;;;;;;6.63;1.95;;;8.60;99.90;;;;;;5074216;28;20044;-73
2021/04/25 08:03:34;;;;;;;9.32;2.15;;;8.70;99.90;;;;;;5073466;28;20074;-73
2021/04/25 08:06:00;;;;;;;12.52;2.55;;;8.80;99.90;;;;;;5074495;28;20032;-73
2021/04/25 08:08:26;;;;;;;9.02;2.35;;;8.90;99.90;;;;;;5072963;28;20024;-74
2021/04/25 08:10:52;;;;;;;6.40;1.67;;;9.00;99.90;;;;;;5073935;28;20013;-73
2021/04/25 08:13:17;;;;;;;5.18;1.63;;;9.00;99.90;;;;;;5073876;28;20037;-73
2021/04/25 08:15:43;;;;;;;7.50;1.60;;;8.90;99.90;;;;;;5073353;28;20027;-72
2021/04/25 08:18:09;;;;;;;6.15;1.90;;;9.00;99.90;;;;;;5074003;28;20032;-72
2021/04/25 08:20:34;;;;;;;9.90;1.98;;;9.00;99.90;;;;;;5073199;28;20023;-72
2021/04/25 08:23:00;;;;;;;6.85;1.85;;;9.10;99.90;;;;;;5073158;28;20085;-73
2021/04/25 08:25:26;;;;;;;7.03;2.10;;;9.20;99.90;;;;;;5073364;28;20099;-73
2021/04/25 08:27:54;;;;;;;5.10;1.50;;;9.30;99.90;;;;;;5074331;28;20502;-72
2021/04/25 08:30:22;;;;;;;9.40;1.70;;;9.30;99.70;;;;;;5073362;28;20528;-73
2021/04/25 08:32:47;;;;;;;11.43;1.75;;;9.20;99.90;;;;;;5073338;28;20044;-73
2021/04/25 08:35:13;;;;;;;4.40;1.55;;;9.30;99.90;;;;;;5073497;28;20108;-72
2021/04/25 08:37:39;;;;;;;10.57;2.60;;;9.30;99.90;;;;;;5073095;28;20059;-73
2021/04/25 08:40:06;;;;;;;11.73;2.33;;;9.50;99.90;;;;;;5073938;28;20023;-72
2021/04/25 08:42:32;;;;;;;4.32;1.45;;;9.60;98.60;;;;;;5073222;28;20035;-72
2021/04/25 08:44:59;;;;;;;3.80;1.48;;;9.70;99.10;;;;;;5072798;28;20024;-72
2021/04/25 08:47:28;;;;;;;9.32;1.45;;;9.70;96.90;;;;;;5073130;28;20098;-73
2021/04/25 08:50:03;;;;;;;6.88;1.88;;;9.70;98.20;;;;;;5073333;28;20024;-73
2021/04/25 08:52:30;;;;;;;3.60;1.20;;;9.70;96.60;;;;;;5072453;28;20025;-73
2021/04/25 08:54:56;;;;;;;10.50;1.83;;;9.70;96.20;;;;;;5073026;28;20024;-73
2021/04/25 08:57:22;;;;;;;20.85;2.50;;;9.60;96.80;;;;;;5073254;28;20495;-73
2021/04/25 08:59:48;;;;;;;3.53;1.23;;;9.60;98.00;;;;;;5072244;28;20024;-73
2021/04/25 09:02:13;;;;;;;11.30;1.70;;;9.70;96.90;;;;;;5072786;28;20561;-73
2021/04/25 09:04:39;;;;;;;10.73;2.08;;;9.80;97.10;;;;;;5071899;28;20036;-72
2021/04/25 09:07:12;;;;;;;4.38;1.20;;;9.70;96.00;;;;;;5072809;28;20021;-73
2021/04/25 09:09:42;;;;;;;6.15;1.60;;;9.70;96.60;;;;;;5072764;28;20020;-73
2021/04/25 09:12:08;;;;;;;11.30;1.92;;;9.90;97.00;;;;;;5072076;28;20476;-73
2021/04/25 09:14:37;;;;;;;10.40;2.05;;;10.00;97.00;;;;;;5072839;28;20052;-73
2021/04/25 09:17:04;;;;;;;9.48;1.55;;;10.10;96.40;;;;;;5072658;28;20020;-73
2021/04/25 09:19:58;;;;;;;6.90;1.50;;;10.30;95.70;;;;;;5071721;28;20419;-72
2021/04/25 09:22:51;;;;;;;8.95;1.80;;;10.30;95.20;;;;;;5071616;28;20158;-73
2021/04/25 09:25:19;;;;;;;10.40;1.50;;;10.40;95.10;;;;;;5071946;28;20476;-72
2021/04/25 09:27:49;;;;;;;8.15;1.33;;;10.40;95.10;;;;;;5071674;28;20029;-73
2021/04/25 09:30:25;;;;;;;8.57;1.35;;;10.40;94.20;;;;;;5072423;28;20021;-73
2021/04/25 09:33:05;;;;;;;9.32;1.58;;;10.50;94.90;;;;;;5070424;28;20048;-73
2021/04/25 09:35:31;;;;;;;2.45;1.17;;;10.50;94.10;;;;;;5071739;28;20553;-73
2021/04/25 09:37:58;;;;;;;3.40;1.70;;;10.60;93.90;;;;;;5072302;28;20064;-73
2021/04/25 09:40:26;;;;;;;5.95;1.77;;;10.60;93.70;;;;;;5071374;28;20180;-75
2021/04/25 09:42:57;;;;;;;4.95;1.30;;;10.50;92.80;;;;;;5072103;28;20037;-72
2021/04/25 09:45:27;;;;;;;9.48;1.48;;;10.40;94.00;;;;;;5072119;28;20027;-73
2021/04/25 09:47:53;;;;;;;8.63;1.60;;;10.50;93.80;;;;;;5071595;28;20051;-73
2021/04/25 09:50:21;;;;;;;10.48;2.00;;;10.60;92.80;;;;;;5072030;28;20033;-74
2021/04/25 09:52:50;;;;;;;4.45;1.75;;;10.70;93.00;;;;;;5071965;28;20095;-73
2021/04/25 09:55:32;;;;;;;6.78;1.60;;;10.70;93.00;;;;;;5070572;28;20031;-73
2021/04/25 09:58:11;;;;;;;7.20;1.90;;;10.80;92.90;;;;;;5072069;28;20490;-73
2021/04/25 10:00:41;;;;;;;8.82;1.98;;;10.80;92.70;;;;;;5072523;28;20534;-73
2021/04/25 10:03:10;;;;;;;5.53;1.42;;;10.90;92.50;;;;;;5071203;28;20512;-74
2021/04/25 10:05:39;;;;;;;7.18;2.22;;;10.90;91.80;;;;;;5071800;28;20029;-73
2021/04/25 10:08:05;;;;;;;7.13;1.35;;;10.90;92.10;;;;;;5071679;28;20111;-74
2021/04/25 10:10:31;;;;;;;6.93;1.45;;;10.90;89.20;;;;;;5072030;28;20108;-73
2021/04/25 10:12:58;;;;;;;9.63;1.67;;;10.90;90.70;;;;;;5072982;28;20025;-73
2021/04/25 10:15:24;;;;;;;4.95;1.63;;;11.00;90.50;;;;;;5071125;28;20107;-73
2021/04/25 10:17:54;;;;;;;9.57;2.42;;;11.00;89.20;;;;;;5072245;28;20117;-72
2021/04/25 10:20:22;;;;;;;2.80;1.10;;;11.20;90.30;;;;;;5071615;28;20024;-73
2021/04/25 10:22:49;;;;;;;5.63;1.35;;;11.20;87.50;;;;;;5071126;28;20068;-72
2021/04/25 10:25:33;;;;;;;4.80;1.65;;;11.20;90.10;;;;;;5071844;28;20515;-73
2021/04/25 10:28:03;;;;;;;4.93;1.65;;;11.40;90.00;;;;;;5071735;28;20414;-73
2021/04/25 10:30:32;;;;;;;7.53;1.85;;;11.50;86.80;;;;;;5071665;28;20029;-74
2021/04/25 10:32:58;;;;;;;5.20;1.58;;;11.40;88.70;;;;;;5073472;28;20089;-74
2021/04/25 10:35:29;;;;;;;6.68;1.58;;;11.30;87.90;;;;;;5075491;28;20056;-73
2021/04/25 10:37:55;;;;;;;3.75;1.42;;;11.30;86.40;;;;;;5075017;28;20033;-73
2021/04/25 10:40:27;;;;;;;6.45;1.65;;;11.30;87.70;;;;;;5076185;28;20016;-72
2021/04/25 10:43:07;;;;;;;5.03;1.65;;;11.30;90.00;;;;;;5075491;28;20094;-72
2021/04/25 10:45:55;;;;;;;4.50;1.95;;;11.50;89.00;;;;;;5076257;28;20028;-72
2021/04/25 10:48:29;;;;;;;9.77;2.03;;;11.50;88.40;;;;;;5075401;28;20036;-73
2021/04/25 10:51:07;;;;;;;8.57;1.70;;;11.60;89.00;;;;;;5075102;28;20025;-74
2021/04/25 10:53:37;;;;;;;9.13;1.52;;;11.60;86.90;;;;;;5075373;28;20031;-74
2021/04/25 10:56:28;;;;;;;5.03;2.15;;;11.20;88.80;;;;;;5075793;28;20025;-73
2021/04/25 10:59:21;;;;;;;6.88;1.15;;;11.10;88.40;;;;;;5059979;28;20506;-73
2021/04/25 11:01:49;;;;;;;5.32;1.90;;;11.10;88.20;;;;;;5075195;28;20067;-73
2021/04/25 11:04:55;;;;;;;6.63;2.05;;;11.10;86.90;;;;;;5075178;28;20028;-73
2021/04/25 11:07:37;;;;;;;6.65;1.65;;;11.00;86.70;;;;;;5073046;28;20029;-73
2021/04/25 11:10:03;;;;;;;3.47;1.30;;;11.10;89.80;;;;;;5075024;28;20021;-72
2021/04/25 11:12:41;;;;;;;4.72;1.52;;;11.20;86.70;;;;;;5073938;28;20017;-73
2021/04/25 11:15:08;;;;;;;6.75;1.65;;;11.20;86.50;;;;;;5075379;28;20040;-73
2021/04/25 11:17:33;;;;;;;3.92;1.55;;;11.30;86.50;;;;;;5074669;28;20031;-72
2021/04/25 11:20:05;;;;;;;4.25;1.60;;;11.30;87.70;;;;;;5074116;28;20100;-73
2021/04/25 11:22:44;;;;;;;7.20;1.73;;;11.40;86.80;;;;;;5074544;28;20460;-73
2021/04/25 11:25:30;;;;;;;3.40;1.48;;;11.40;86.30;;;;;;5075286;28;20464;-73
2021/04/25 11:27:56;;;;;;;11.13;1.42;;;11.40;85.90;;;;;;5075083;28;20365;-72
2021/04/25 11:30:36;;;;;;;6.95;2.15;;;11.50;87.70;;;;;;5074867;28;20028;-74
2021/04/25 11:33:32;;;;;;;6.65;1.50;;;11.70;86.20;;;;;;5073864;28;20128;-75
2021/04/25 11:36:36;;;;;;;4.50;1.27;;;11.60;84.20;;;;;;5074715;28;20424;-73
2021/04/25 11:39:04;;;;;;;7.03;1.33;;;11.60;83.30;;;;;;5057308;28;20033;-73
2021/04/25 11:41:30;;;;;;;4.65;1.40;;;11.50;84.90;;;;;;5074254;28;20028;-72
2021/04/25 11:43:56;;;;;;;5.47;1.90;;;11.40;83.40;;;;;;5073782;28;20073;-74
2021/04/25 11:46:32;;;;;;;10.90;1.80;;;11.40;84.50;;;;;;5073912;28;20126;-73
2021/04/25 11:49:00;;;;;;;9.40;1.90;;;11.50;85.20;;;;;;5074943;28;20437;-74
2021/04/25 11:51:26;;;;;;;5.40;1.40;;;11.60;86.10;;;;;;5074489;28;20016;-73
2021/04/25 11:53:52;;;;;;;7.65;1.67;;;11.70;85.90;;;;;;5073632;28;20020;-74
2021/04/25 11:56:29;;;;;;;4.38;2.13;;;11.60;85.30;;;;;;5073849;28;20024;-74
2021/04/25 11:59:11;;;;;;;5.15;1.60;;;11.90;83.60;;;;;;5074191;28;20036;-73
2021/04/25 12:01:37;;;;;;;8.18;2.25;;;12.10;82.30;;;;;;5073136;28;20036;-74
2021/04/25 12:04:04;;;;;;;8.52;1.70;;;11.70;81.40;;;;;;5074670;28;20108;-74
2021/04/25 12:06:50;;;;;;;4.32;1.63;;;11.80;82.20;;;;;;5073810;28;20029;-74
2021/04/25 12:09:16;;;;;;;7.22;2.00;;;11.80;83.70;;;;;;5073311;28;20029;-73
2021/04/25 12:11:43;;;;;;;10.25;1.80;;;11.90;84.50;;;;;;5073895;28;20031;-75
2021/04/25 12:14:19;;;;;;;8.23;1.55;;;11.90;84.50;;;;;;5073849;28;20593;-74
2021/04/25 12:16:48;;;;;;;5.57;1.70;;;11.60;83.00;;;;;;5073534;28;20037;-74
2021/04/25 12:19:21;;;;;;;6.13;1.70;;;11.60;84.50;;;;;;5074326;28;20024;-72
2021/04/25 12:21:47;;;;;;;12.27;2.33;;;11.60;83.90;;;;;;5073340;28;20487;-74
2021/04/25 12:24:13;;;;;;;7.68;2.40;;;11.60;86.30;;;;;;5074121;28;20028;-74
2021/04/25 12:26:42;;;;;;;5.07;1.65;;;11.70;85.40;;;;;;5073546;28;20024;-73
2021/04/25 12:29:08;;;;;;;8.57;2.03;;;12.00;84.50;;;;;;5073144;28;20165;-75
2021/04/25 12:31:45;;;;;;;5.93;1.50;;;12.20;80.60;;;;;;5074059;28;20569;-74
2021/04/25 12:34:15;;;;;;;6.68;1.40;;;12.20;82.20;;;;;;5074036;28;20025;-74
2021/04/25 12:36:51;;;;;;;8.23;1.50;;;12.20;82.10;;;;;;5073297;28;20016;-73
2021/04/25 12:39:17;;;;;;;3.22;1.35;;;12.10;85.10;;;;;;5073430;28;20032;-73
2021/04/25 12:41:45;;;;;;;4.47;1.38;;;11.70;84.00;;;;;;5074109;28;20017;-74
2021/04/25 12:44:13;;;;;;;7.43;2.03;;;11.40;84.10;;;;;;5073808;28;20032;-73
2021/04/25 12:46:39;;;;;;;6.38;1.67;;;11.30;87.10;;;;;;5074997;28;20012;-74
2021/04/25 12:49:09;;;;;;;6.20;1.25;;;11.20;85.00;;;;;;5075081;28;20051;-74
2021/04/25 12:51:41;;;;;;;4.25;1.45;;;11.20;86.20;;;;;;5072906;28;20035;-75
2021/04/25 12:54:11;;;;;;;7.45;1.77;;;11.00;88.20;;;;;;5074304;28;20024;-74